LHX993 EHAM-EDDF
Flight info
| Callsign | LHX993 |
|---|---|
| Flight time | 0h 54m |
| Altitude | 35000 |
| Route | EDUPO Z739 MISGO DCT DIXAT DIXAT1A |
| Aircraft | A320/M-SDE3FGHIRWY/LB1 |
Departure
| Time | 2026-05-06 17:05 |
|---|---|
| Airport | Amsterdam Airport Schiphol (EHAM) |
Arrival
| Time | 2026-05-06 18:00 |
|---|---|
| Airport | Frankfurt Main Airport (EDDF) |
| Time | Latitude | Longitude | Altitude | Speed | Heading |
|---|---|---|---|---|---|
| 2026-05-06 16:20 | 52.30477 | 4.76294 | 0 ft | 0 kts | 238° |
| 2026-05-06 16:50 | 52.30482 | 4.76307 | -1 ft | 3 kts | 238° |
| 2026-05-06 16:50 | 52.30493 | 4.76335 | -1 ft | 3 kts | 238° |
| 2026-05-06 16:50 | 52.30503 | 4.76361 | -1 ft | 3 kts | 212° |
| 2026-05-06 16:50 | 52.30503 | 4.76367 | -1 ft | 1 kts | 149° |
| 2026-05-06 16:51 | 52.30514 | 4.76356 | -1 ft | 3 kts | 148° |
| 2026-05-06 16:51 | 52.30522 | 4.76348 | -1 ft | 0 kts | 148° |
| 2026-05-06 16:54 | 52.30493 | 4.76378 | -1 ft | 8 kts | 148° |
| 2026-05-06 16:54 | 52.30429 | 4.76443 | -1 ft | 13 kts | 148° |
| 2026-05-06 16:54 | 52.30341 | 4.76533 | -1 ft | 14 kts | 150° |
| 2026-05-06 16:54 | 52.30267 | 4.76447 | -1 ft | 15 kts | 237° |
| 2026-05-06 16:55 | 52.30220 | 4.76326 | -1 ft | 12 kts | 238° |
| 2026-05-06 16:55 | 52.30155 | 4.76279 | -1 ft | 13 kts | 159° |
| 2026-05-06 16:55 | 52.30151 | 4.76403 | -1 ft | 14 kts | 58° |
| 2026-05-06 16:55 | 52.30199 | 4.76527 | -1 ft | 13 kts | 58° |
| 2026-05-06 16:56 | 52.30255 | 4.76676 | -1 ft | 17 kts | 58° |
| 2026-05-06 16:56 | 52.30301 | 4.76793 | -1 ft | 13 kts | 57° |
| 2026-05-06 16:56 | 52.30358 | 4.76940 | -1 ft | 17 kts | 58° |
| 2026-05-06 16:56 | 52.30421 | 4.77108 | -1 ft | 16 kts | 58° |
| 2026-05-06 16:57 | 52.30484 | 4.77275 | -1 ft | 19 kts | 56° |
| 2026-05-06 16:57 | 52.30544 | 4.77426 | -1 ft | 15 kts | 57° |
| 2026-05-06 16:57 | 52.30605 | 4.77558 | -1 ft | 15 kts | 39° |
| 2026-05-06 16:57 | 52.30716 | 4.77593 | -1 ft | 18 kts | 4° |
| 2026-05-06 16:58 | 52.30856 | 4.77607 | -1 ft | 22 kts | 4° |
| 2026-05-06 16:58 | 52.31010 | 4.77623 | -1 ft | 19 kts | 358° |
| 2026-05-06 16:58 | 52.31038 | 4.77621 | -1 ft | 0 kts | 359° |
| 2026-05-06 16:58 | 52.31054 | 4.77625 | -1 ft | 5 kts | 7° |
| 2026-05-06 16:59 | 52.31102 | 4.77629 | -1 ft | 9 kts | 3° |
| 2026-05-06 16:59 | 52.31184 | 4.77636 | -1 ft | 14 kts | 3° |
| 2026-05-06 16:59 | 52.31297 | 4.77646 | -1 ft | 18 kts | 3° |
| 2026-05-06 16:59 | 52.31415 | 4.77654 | -1 ft | 15 kts | 351° |
| 2026-05-06 17:00 | 52.31514 | 4.77554 | -1 ft | 19 kts | 316° |
| 2026-05-06 17:00 | 52.31577 | 4.77392 | -1 ft | 13 kts | 278° |
| 2026-05-06 17:00 | 52.31574 | 4.77253 | -1 ft | 12 kts | 267° |
| 2026-05-06 17:00 | 52.31569 | 4.77122 | -1 ft | 11 kts | 267° |
| 2026-05-06 17:01 | 52.31565 | 4.77002 | -1 ft | 10 kts | 266° |
| 2026-05-06 17:01 | 52.31560 | 4.76872 | -1 ft | 15 kts | 266° |
| 2026-05-06 17:01 | 52.31553 | 4.76655 | -1 ft | 18 kts | 267° |
| 2026-05-06 17:01 | 52.31545 | 4.76422 | -1 ft | 21 kts | 267° |
| 2026-05-06 17:02 | 52.31538 | 4.76193 | -1 ft | 19 kts | 267° |
| 2026-05-06 17:02 | 52.31533 | 4.76076 | -1 ft | 8 kts | 268° |
| 2026-05-06 17:02 | 52.31556 | 4.76004 | -1 ft | 6 kts | 334° |
| 2026-05-06 17:02 | 52.31606 | 4.76000 | -1 ft | 0 kts | 23° |
| 2026-05-06 17:03 | 52.31607 | 4.76001 | -1 ft | 1 kts | 27° |
| 2026-05-06 17:03 | 52.31623 | 4.76029 | -1 ft | 8 kts | 52° |
| 2026-05-06 17:03 | 52.31668 | 4.76140 | 0 ft | 13 kts | 58° |
| 2026-05-06 17:04 | 52.31713 | 4.76284 | 0 ft | 15 kts | 69° |
| 2026-05-06 17:04 | 52.31722 | 4.76364 | -1 ft | 0 kts | 85° |
| 2026-05-06 17:04 | 52.31727 | 4.76516 | -2 ft | 46 kts | 86° |
| 2026-05-06 17:05 | 52.31765 | 4.77568 | -2 ft | 135 kts | 86° |
| 2026-05-06 17:05 | 52.31852 | 4.79384 | 387 ft | 170 kts | 84° |
| 2026-05-06 17:05 | 52.31895 | 4.81328 | 1385 ft | 175 kts | 84° |
| 2026-05-06 17:05 | 52.31943 | 4.83373 | 2180 ft | 181 kts | 85° |
| 2026-05-06 17:06 | 52.32008 | 4.85499 | 2661 ft | 197 kts | 86° |
| 2026-05-06 17:06 | 52.31769 | 4.87829 | 3051 ft | 223 kts | 106° |
| 2026-05-06 17:06 | 52.31145 | 4.90274 | 3593 ft | 242 kts | 109° |
| 2026-05-06 17:06 | 52.30463 | 4.92884 | 4187 ft | 261 kts | 110° |
| 2026-05-06 17:07 | 52.29735 | 4.95647 | 5085 ft | 268 kts | 111° |
| 2026-05-06 17:07 | 52.29142 | 4.98555 | 6050 ft | 272 kts | 107° |
| 2026-05-06 17:07 | 52.28604 | 5.01542 | 6988 ft | 276 kts | 106° |
| 2026-05-06 17:07 | 52.28076 | 5.04582 | 7865 ft | 281 kts | 105° |
| 2026-05-06 17:08 | 52.27544 | 5.07688 | 8752 ft | 287 kts | 105° |
| 2026-05-06 17:08 | 52.27005 | 5.10843 | 9646 ft | 292 kts | 105° |
| 2026-05-06 17:08 | 52.26445 | 5.14080 | 10306 ft | 305 kts | 105° |
| 2026-05-06 17:08 | 52.25839 | 5.17544 | 10624 ft | 329 kts | 105° |
| 2026-05-06 17:09 | 52.25188 | 5.21254 | 10942 ft | 350 kts | 105° |
| 2026-05-06 17:09 | 52.24383 | 5.25027 | 11548 ft | 359 kts | 114° |
| 2026-05-06 17:09 | 52.23146 | 5.28590 | 12320 ft | 363 kts | 125° |
| 2026-05-06 17:09 | 52.21682 | 5.31976 | 12906 ft | 368 kts | 126° |
| 2026-05-06 17:10 | 52.20192 | 5.35414 | 13662 ft | 372 kts | 126° |
| 2026-05-06 17:10 | 52.18690 | 5.38876 | 14292 ft | 378 kts | 126° |
| 2026-05-06 17:10 | 52.17163 | 5.42388 | 15009 ft | 380 kts | 126° |
| 2026-05-06 17:10 | 52.15629 | 5.45906 | 15704 ft | 383 kts | 126° |
| 2026-05-06 17:11 | 52.14084 | 5.49443 | 16479 ft | 384 kts | 126° |
| 2026-05-06 17:11 | 52.12537 | 5.52982 | 17190 ft | 386 kts | 126° |
| 2026-05-06 17:11 | 52.10974 | 5.56555 | 17868 ft | 388 kts | 126° |
| 2026-05-06 17:11 | 52.09402 | 5.60147 | 18483 ft | 392 kts | 127° |
| 2026-05-06 17:12 | 52.07809 | 5.63773 | 19008 ft | 396 kts | 127° |
| 2026-05-06 17:12 | 52.06194 | 5.67410 | 19525 ft | 399 kts | 129° |
| 2026-05-06 17:12 | 52.05006 | 5.69704 | 19860 ft | 401 kts | 132° |
| 2026-05-06 17:12 | 52.03168 | 5.73141 | 20411 ft | 404 kts | 132° |
| 2026-05-06 17:13 | 52.01317 | 5.76593 | 20905 ft | 408 kts | 133° |
| 2026-05-06 17:13 | 51.99444 | 5.80068 | 21391 ft | 412 kts | 133° |
| 2026-05-06 17:13 | 51.97548 | 5.83585 | 21911 ft | 415 kts | 133° |
| 2026-05-06 17:13 | 51.95646 | 5.87129 | 22389 ft | 419 kts | 133° |
| 2026-05-06 17:14 | 51.93725 | 5.90717 | 22842 ft | 423 kts | 133° |
| 2026-05-06 17:14 | 51.91787 | 5.94335 | 23336 ft | 427 kts | 133° |
| 2026-05-06 17:14 | 51.89968 | 5.97719 | 23732 ft | 430 kts | 133° |
| 2026-05-06 17:14 | 51.88001 | 6.01370 | 24171 ft | 431 kts | 133° |
| 2026-05-06 17:15 | 51.86031 | 6.05023 | 24612 ft | 433 kts | 133° |
| 2026-05-06 17:15 | 51.84046 | 6.08709 | 25050 ft | 434 kts | 133° |
| 2026-05-06 17:15 | 51.82065 | 6.12369 | 25444 ft | 436 kts | 133° |
| 2026-05-06 17:15 | 51.80039 | 6.16091 | 25853 ft | 439 kts | 134° |
| 2026-05-06 17:16 | 51.78018 | 6.19788 | 26259 ft | 441 kts | 134° |
| 2026-05-06 17:16 | 51.75991 | 6.23490 | 26656 ft | 443 kts | 134° |
| 2026-05-06 17:16 | 51.73936 | 6.27238 | 27058 ft | 445 kts | 134° |
| 2026-05-06 17:16 | 51.71884 | 6.30981 | 27435 ft | 447 kts | 134° |
| 2026-05-06 17:17 | 51.69816 | 6.34744 | 27787 ft | 449 kts | 134° |
| 2026-05-06 17:17 | 51.67740 | 6.38517 | 28143 ft | 452 kts | 134° |
| 2026-05-06 17:17 | 51.65633 | 6.42346 | 28486 ft | 454 kts | 134° |
| 2026-05-06 17:17 | 51.63546 | 6.46122 | 28823 ft | 456 kts | 134° |
| 2026-05-06 17:18 | 51.61432 | 6.49939 | 29178 ft | 457 kts | 135° |
| 2026-05-06 17:18 | 51.59344 | 6.53709 | 29520 ft | 459 kts | 135° |
| 2026-05-06 17:18 | 51.57219 | 6.57555 | 29833 ft | 461 kts | 135° |
| 2026-05-06 17:18 | 51.55089 | 6.61402 | 30177 ft | 461 kts | 135° |
| 2026-05-06 17:19 | 51.52959 | 6.65235 | 30585 ft | 459 kts | 135° |
| 2026-05-06 17:19 | 51.50831 | 6.69059 | 30958 ft | 458 kts | 135° |
| 2026-05-06 17:19 | 51.48708 | 6.72870 | 31338 ft | 457 kts | 136° |
| 2026-05-06 17:19 | 51.46586 | 6.76668 | 31683 ft | 457 kts | 136° |
| 2026-05-06 17:20 | 51.44460 | 6.80465 | 32047 ft | 457 kts | 136° |
| 2026-05-06 17:20 | 51.42340 | 6.84249 | 32424 ft | 456 kts | 136° |
| 2026-05-06 17:20 | 51.40228 | 6.88032 | 32795 ft | 456 kts | 136° |
| 2026-05-06 17:20 | 51.38169 | 6.91902 | 33175 ft | 456 kts | 134° |
| 2026-05-06 17:21 | 51.36178 | 6.95856 | 33567 ft | 456 kts | 133° |
| 2026-05-06 17:21 | 51.34234 | 6.99853 | 33973 ft | 455 kts | 132° |
| 2026-05-06 17:21 | 51.32307 | 7.03858 | 34321 ft | 454 kts | 132° |
| 2026-05-06 17:21 | 51.30373 | 7.07848 | 34629 ft | 453 kts | 132° |
| 2026-05-06 17:22 | 51.28368 | 7.11715 | 34838 ft | 451 kts | 138° |
| 2026-05-06 17:22 | 51.26065 | 7.15066 | 34445 ft | 447 kts | 147° |
| 2026-05-06 17:22 | 51.23463 | 7.17774 | 33359 ft | 447 kts | 156° |
| 2026-05-06 17:22 | 51.20691 | 7.19913 | 32257 ft | 451 kts | 158° |
| 2026-05-06 17:23 | 51.17814 | 7.22120 | 31205 ft | 455 kts | 157° |
| 2026-05-06 17:23 | 51.14965 | 7.24354 | 30173 ft | 458 kts | 156° |
| 2026-05-06 17:23 | 51.12101 | 7.26626 | 28989 ft | 461 kts | 155° |
| 2026-05-06 17:23 | 51.09268 | 7.28908 | 27874 ft | 463 kts | 155° |
| 2026-05-06 17:24 | 51.06412 | 7.31259 | 26875 ft | 461 kts | 154° |
| 2026-05-06 17:24 | 51.03580 | 7.33621 | 25938 ft | 459 kts | 154° |
| 2026-05-06 17:24 | 51.00771 | 7.35980 | 25096 ft | 455 kts | 154° |
| 2026-05-06 17:24 | 50.97979 | 7.38318 | 24277 ft | 450 kts | 154° |
| 2026-05-06 17:25 | 50.95234 | 7.40598 | 23649 ft | 443 kts | 154° |
| 2026-05-06 17:25 | 50.92521 | 7.42834 | 22993 ft | 436 kts | 154° |
| 2026-05-06 17:25 | 50.89852 | 7.45016 | 22388 ft | 427 kts | 154° |
| 2026-05-06 17:25 | 50.87223 | 7.47150 | 21793 ft | 421 kts | 154° |
| 2026-05-06 17:26 | 50.84634 | 7.49250 | 21214 ft | 415 kts | 154° |
| 2026-05-06 17:26 | 50.82084 | 7.51327 | 20635 ft | 411 kts | 154° |
| 2026-05-06 17:26 | 50.79558 | 7.53384 | 20057 ft | 407 kts | 154° |
| 2026-05-06 17:26 | 50.77050 | 7.55430 | 19487 ft | 404 kts | 154° |
| 2026-05-06 17:27 | 50.74563 | 7.57453 | 18935 ft | 401 kts | 154° |
| 2026-05-06 17:27 | 50.72090 | 7.59465 | 18370 ft | 399 kts | 154° |
| 2026-05-06 17:27 | 50.69623 | 7.61472 | 17767 ft | 396 kts | 154° |
| 2026-05-06 17:27 | 50.67202 | 7.63439 | 17298 ft | 393 kts | 155° |
| 2026-05-06 17:28 | 50.64771 | 7.65409 | 16821 ft | 390 kts | 155° |
| 2026-05-06 17:28 | 50.62372 | 7.67346 | 16326 ft | 387 kts | 155° |
| 2026-05-06 17:28 | 50.59986 | 7.69271 | 15877 ft | 383 kts | 155° |
| 2026-05-06 17:28 | 50.57624 | 7.71177 | 15444 ft | 381 kts | 155° |
| 2026-05-06 17:29 | 50.55278 | 7.73070 | 15002 ft | 378 kts | 155° |
| 2026-05-06 17:29 | 50.52940 | 7.74953 | 14581 ft | 376 kts | 155° |
| 2026-05-06 17:29 | 50.50617 | 7.76819 | 14147 ft | 374 kts | 155° |
| 2026-05-06 17:29 | 50.48316 | 7.78667 | 13730 ft | 371 kts | 155° |
| 2026-05-06 17:30 | 50.46163 | 7.80391 | 13300 ft | 369 kts | 155° |
| 2026-05-06 17:30 | 50.43892 | 7.82262 | 12873 ft | 368 kts | 151° |
| 2026-05-06 17:30 | 50.41828 | 7.84554 | 12161 ft | 371 kts | 144° |
| 2026-05-06 17:30 | 50.39786 | 7.87078 | 11295 ft | 376 kts | 143° |
| 2026-05-06 17:31 | 50.37737 | 7.89637 | 10541 ft | 376 kts | 143° |
| 2026-05-06 17:31 | 50.35738 | 7.92137 | 10343 ft | 360 kts | 143° |
| 2026-05-06 17:31 | 50.33824 | 7.94525 | 10220 ft | 343 kts | 143° |
| 2026-05-06 17:31 | 50.31978 | 7.96824 | 10092 ft | 329 kts | 143° |
| 2026-05-06 17:32 | 50.30239 | 7.98979 | 9972 ft | 315 kts | 144° |
| 2026-05-06 17:32 | 50.28529 | 8.01088 | 9845 ft | 303 kts | 144° |
| 2026-05-06 17:32 | 50.26911 | 8.03093 | 9821 ft | 292 kts | 141° |
| 2026-05-06 17:32 | 50.25533 | 8.05410 | 9778 ft | 292 kts | 129° |
| 2026-05-06 17:33 | 50.24306 | 8.07926 | 9685 ft | 291 kts | 129° |
| 2026-05-06 17:33 | 50.23075 | 8.10438 | 9593 ft | 291 kts | 130° |
| 2026-05-06 17:33 | 50.21862 | 8.12903 | 9511 ft | 290 kts | 130° |
| 2026-05-06 17:33 | 50.20631 | 8.15398 | 9417 ft | 290 kts | 130° |
| 2026-05-06 17:34 | 50.19405 | 8.17877 | 9339 ft | 289 kts | 130° |
| 2026-05-06 17:34 | 50.18170 | 8.20362 | 9249 ft | 289 kts | 130° |
| 2026-05-06 17:34 | 50.16942 | 8.22837 | 9168 ft | 289 kts | 130° |
| 2026-05-06 17:34 | 50.15713 | 8.25320 | 9077 ft | 288 kts | 130° |
| 2026-05-06 17:35 | 50.14489 | 8.27790 | 8978 ft | 287 kts | 130° |
| 2026-05-06 17:35 | 50.13267 | 8.30252 | 8901 ft | 287 kts | 130° |
| 2026-05-06 17:35 | 50.12046 | 8.32711 | 8814 ft | 287 kts | 129° |
| 2026-05-06 17:36 | 50.10540 | 8.38414 | 8652 ft | 292 kts | 95° |
| 2026-05-06 17:36 | 50.10697 | 8.41558 | 8568 ft | 293 kts | 77° |
| 2026-05-06 17:36 | 50.11368 | 8.44555 | 8476 ft | 294 kts | 70° |
| 2026-05-06 17:36 | 50.12094 | 8.47547 | 8376 ft | 294 kts | 70° |
| 2026-05-06 17:37 | 50.12806 | 8.50517 | 8294 ft | 293 kts | 70° |
| 2026-05-06 17:37 | 50.13519 | 8.53502 | 8210 ft | 293 kts | 70° |
| 2026-05-06 17:37 | 50.14230 | 8.56478 | 8121 ft | 293 kts | 70° |
| 2026-05-06 17:37 | 50.14936 | 8.59452 | 8034 ft | 292 kts | 71° |
| 2026-05-06 17:38 | 50.15637 | 8.62426 | 7945 ft | 292 kts | 70° |
| 2026-05-06 17:38 | 50.16341 | 8.65400 | 7861 ft | 292 kts | 70° |
| 2026-05-06 17:38 | 50.17042 | 8.68358 | 7781 ft | 292 kts | 70° |
| 2026-05-06 17:38 | 50.17749 | 8.71343 | 7688 ft | 291 kts | 70° |
| 2026-05-06 17:39 | 50.18447 | 8.74299 | 7605 ft | 291 kts | 70° |
| 2026-05-06 17:39 | 50.19147 | 8.77267 | 7521 ft | 291 kts | 70° |
| 2026-05-06 17:39 | 50.19848 | 8.80229 | 7437 ft | 291 kts | 70° |
| 2026-05-06 17:39 | 50.20550 | 8.83193 | 7351 ft | 290 kts | 71° |
| 2026-05-06 17:40 | 50.21245 | 8.86144 | 7261 ft | 290 kts | 71° |
| 2026-05-06 17:40 | 50.21938 | 8.89097 | 7177 ft | 290 kts | 70° |
| 2026-05-06 17:40 | 50.22630 | 8.92048 | 7091 ft | 289 kts | 71° |
| 2026-05-06 17:40 | 50.23321 | 8.94994 | 7009 ft | 289 kts | 71° |
| 2026-05-06 17:41 | 50.24010 | 8.97944 | 6931 ft | 289 kts | 71° |
| 2026-05-06 17:41 | 50.24698 | 9.00887 | 6841 ft | 288 kts | 71° |
| 2026-05-06 17:41 | 50.25386 | 9.03828 | 6759 ft | 288 kts | 71° |
| 2026-05-06 17:41 | 50.26073 | 9.06766 | 6648 ft | 288 kts | 71° |
| 2026-05-06 17:42 | 50.26747 | 9.09663 | 6523 ft | 287 kts | 71° |
| 2026-05-06 17:42 | 50.27437 | 9.12644 | 6407 ft | 287 kts | 71° |
| 2026-05-06 17:42 | 50.28115 | 9.15575 | 6284 ft | 286 kts | 71° |
| 2026-05-06 17:42 | 50.28795 | 9.18500 | 6164 ft | 286 kts | 71° |
| 2026-05-06 17:43 | 50.29469 | 9.21396 | 6027 ft | 284 kts | 71° |
| 2026-05-06 17:43 | 50.30145 | 9.24314 | 5937 ft | 284 kts | 70° |
| 2026-05-06 17:43 | 50.30893 | 9.27177 | 5802 ft | 285 kts | 58° |
| 2026-05-06 17:43 | 50.32232 | 9.29395 | 5674 ft | 282 kts | 30° |
| 2026-05-06 17:44 | 50.34048 | 9.30407 | 5546 ft | 276 kts | 2° |
| 2026-05-06 17:44 | 50.35907 | 9.29997 | 5408 ft | 269 kts | 334° |
| 2026-05-06 17:44 | 50.37380 | 9.28298 | 5291 ft | 261 kts | 306° |
| 2026-05-06 17:44 | 50.38120 | 9.25827 | 5003 ft | 250 kts | 277° |
| 2026-05-06 17:45 | 50.37943 | 9.23121 | 4933 ft | 256 kts | 248° |
| 2026-05-06 17:45 | 50.36940 | 9.20817 | 4862 ft | 259 kts | 227° |
| 2026-05-06 17:45 | 50.35664 | 9.18832 | 4785 ft | 260 kts | 224° |
| 2026-05-06 17:45 | 50.34337 | 9.16853 | 4705 ft | 259 kts | 224° |
| 2026-05-06 17:46 | 50.33042 | 9.14938 | 4640 ft | 259 kts | 224° |
| 2026-05-06 17:46 | 50.31730 | 9.13007 | 4561 ft | 259 kts | 224° |
| 2026-05-06 17:46 | 50.30416 | 9.11078 | 4481 ft | 259 kts | 224° |
| 2026-05-06 17:46 | 50.29099 | 9.09147 | 4395 ft | 259 kts | 224° |
| 2026-05-06 17:47 | 50.27811 | 9.07268 | 4316 ft | 245 kts | 224° |
| 2026-05-06 17:47 | 50.26598 | 9.05508 | 4240 ft | 231 kts | 224° |
| 2026-05-06 17:47 | 50.25450 | 9.03856 | 4151 ft | 219 kts | 224° |
| 2026-05-06 17:47 | 50.24358 | 9.02292 | 4042 ft | 208 kts | 224° |
| 2026-05-06 17:48 | 50.23304 | 9.00786 | 4006 ft | 204 kts | 224° |
| 2026-05-06 17:48 | 50.22263 | 8.99295 | 4004 ft | 203 kts | 224° |
| 2026-05-06 17:48 | 50.21240 | 8.97831 | 4001 ft | 193 kts | 224° |
| 2026-05-06 17:48 | 50.20335 | 8.96530 | 3998 ft | 182 kts | 224° |
| 2026-05-06 17:49 | 50.19421 | 8.95217 | 4002 ft | 175 kts | 224° |
| 2026-05-06 17:49 | 50.18534 | 8.93954 | 4004 ft | 171 kts | 224° |
| 2026-05-06 17:49 | 50.17654 | 8.92705 | 4005 ft | 171 kts | 224° |
| 2026-05-06 17:49 | 50.16873 | 8.91316 | 3993 ft | 170 kts | 249° |
| 2026-05-06 17:50 | 50.16822 | 8.89522 | 4006 ft | 171 kts | 289° |
| 2026-05-06 17:50 | 50.17607 | 8.88133 | 4003 ft | 179 kts | 332° |
| 2026-05-06 17:50 | 50.18845 | 8.87912 | 4007 ft | 187 kts | 14° |
| 2026-05-06 17:50 | 50.19919 | 8.89024 | 4006 ft | 190 kts | 52° |
| 2026-05-06 17:51 | 50.20620 | 8.90793 | 4019 ft | 193 kts | 62° |
| 2026-05-06 17:51 | 50.21228 | 8.92668 | 4010 ft | 195 kts | 64° |
| 2026-05-06 17:51 | 50.21731 | 8.94618 | 3993 ft | 193 kts | 82° |
| 2026-05-06 17:51 | 50.21547 | 8.96569 | 4000 ft | 187 kts | 123° |
| 2026-05-06 17:52 | 50.20622 | 8.97867 | 4003 ft | 179 kts | 166° |
| 2026-05-06 17:52 | 50.19509 | 8.97908 | 4004 ft | 171 kts | 205° |
| 2026-05-06 17:52 | 50.18491 | 8.96927 | 4017 ft | 172 kts | 220° |
| 2026-05-06 17:52 | 50.17629 | 8.95644 | 4005 ft | 171 kts | 230° |
| 2026-05-06 17:53 | 50.16817 | 8.94195 | 4019 ft | 182 kts | 230° |
| 2026-05-06 17:53 | 50.15979 | 8.92693 | 4010 ft | 185 kts | 231° |
| 2026-05-06 17:53 | 50.15140 | 8.91190 | 4006 ft | 184 kts | 230° |
| 2026-05-06 17:53 | 50.14295 | 8.89675 | 4003 ft | 185 kts | 230° |
| 2026-05-06 17:54 | 50.13452 | 8.88163 | 4002 ft | 185 kts | 230° |
| 2026-05-06 17:54 | 50.12621 | 8.86640 | 4003 ft | 184 kts | 236° |
| 2026-05-06 17:54 | 50.12055 | 8.84879 | 4004 ft | 181 kts | 251° |
| 2026-05-06 17:54 | 50.11626 | 8.83020 | 4006 ft | 183 kts | 250° |
| 2026-05-06 17:55 | 50.11184 | 8.81176 | 4011 ft | 184 kts | 250° |
| 2026-05-06 17:55 | 50.10731 | 8.79275 | 4004 ft | 182 kts | 250° |
| 2026-05-06 17:55 | 50.10295 | 8.77432 | 3833 ft | 184 kts | 250° |
| 2026-05-06 17:55 | 50.09859 | 8.75587 | 3576 ft | 184 kts | 251° |
| 2026-05-06 17:56 | 50.09411 | 8.73695 | 3314 ft | 184 kts | 251° |
| 2026-05-06 17:56 | 50.08989 | 8.71909 | 3084 ft | 170 kts | 251° |
| 2026-05-06 17:56 | 50.08597 | 8.70260 | 2830 ft | 158 kts | 252° |
| 2026-05-06 17:56 | 50.08232 | 8.68723 | 2615 ft | 142 kts | 253° |
| 2026-05-06 17:57 | 50.07934 | 8.67465 | 2433 ft | 135 kts | 253° |
| 2026-05-06 17:57 | 50.07612 | 8.66108 | 2239 ft | 133 kts | 254° |
| 2026-05-06 17:57 | 50.07292 | 8.64757 | 2045 ft | 132 kts | 254° |
| 2026-05-06 17:57 | 50.06991 | 8.63490 | 1865 ft | 131 kts | 253° |
| 2026-05-06 17:58 | 50.06674 | 8.62158 | 1674 ft | 131 kts | 253° |
| 2026-05-06 17:58 | 50.06358 | 8.60821 | 1486 ft | 133 kts | 255° |
| 2026-05-06 17:58 | 50.06057 | 8.59466 | 1307 ft | 132 kts | 254° |
| 2026-05-06 17:58 | 50.05840 | 8.58587 | 1141 ft | 131 kts | 252° |
| 2026-05-06 17:59 | 50.05401 | 8.56857 | 875 ft | 130 kts | 253° |
| 2026-05-06 17:59 | 50.05205 | 8.55962 | 766 ft | 130 kts | 253° |
| 2026-05-06 17:59 | 50.04783 | 8.54211 | 509 ft | 130 kts | 253° |
| 2026-05-06 17:59 | 50.04470 | 8.52901 | 360 ft | 127 kts | 254° |
| 2026-05-06 18:00 | 50.04213 | 8.51820 | 335 ft | 82 kts | 250° |
| 2026-05-06 18:00 | 50.04069 | 8.51225 | 328 ft | 40 kts | 248° |
| 2026-05-06 18:00 | 50.03976 | 8.51015 | 326 ft | 26 kts | 224° |
| 2026-05-06 18:00 | 50.03861 | 8.50859 | 326 ft | 13 kts | 220° |
| 2026-05-06 18:01 | 50.03814 | 8.50836 | 332 ft | 0 kts | 172° |
| 2026-05-06 18:01 | 50.03813 | 8.50837 | 332 ft | 2 kts | 170° |
| 2026-05-06 18:02 | 50.03780 | 8.50886 | 331 ft | 13 kts | 105° |
| 2026-05-06 18:02 | 50.03799 | 8.51000 | 331 ft | 17 kts | 69° |
| 2026-05-06 18:02 | 50.03847 | 8.51200 | 336 ft | 24 kts | 69° |
| 2026-05-06 18:02 | 50.03899 | 8.51416 | 333 ft | 12 kts | 70° |
| 2026-05-06 18:03 | 50.03934 | 8.51562 | 333 ft | 13 kts | 69° |
| 2026-05-06 18:03 | 50.03964 | 8.51687 | 334 ft | 15 kts | 69° |
| 2026-05-06 18:03 | 50.04012 | 8.51889 | 334 ft | 24 kts | 69° |
| 2026-05-06 18:03 | 50.04068 | 8.52125 | 337 ft | 18 kts | 70° |
| 2026-05-06 18:04 | 50.04100 | 8.52255 | 350 ft | 15 kts | 69° |
| 2026-05-06 18:04 | 50.04147 | 8.52451 | 350 ft | 20 kts | 69° |
| 2026-05-06 18:04 | 50.04151 | 8.52468 | 352 ft | 0 kts | 70° |
| 2026-05-06 18:04 | 50.04153 | 8.52477 | 353 ft | 4 kts | 70° |
| 2026-05-06 18:05 | 50.04172 | 8.52556 | 355 ft | 12 kts | 70° |
| 2026-05-06 18:05 | 50.04204 | 8.52692 | 355 ft | 9 kts | 69° |
| 2026-05-06 18:05 | 50.04235 | 8.52819 | 354 ft | 17 kts | 70° |
| 2026-05-06 18:05 | 50.04282 | 8.53017 | 355 ft | 16 kts | 70° |
| 2026-05-06 18:06 | 50.04329 | 8.53214 | 365 ft | 22 kts | 69° |
| 2026-05-06 18:06 | 50.04383 | 8.53436 | 373 ft | 22 kts | 70° |
| 2026-05-06 18:06 | 50.04406 | 8.53674 | 375 ft | 25 kts | 84° |
| 2026-05-06 18:06 | 50.04421 | 8.53899 | 375 ft | 21 kts | 84° |
| 2026-05-06 18:07 | 50.04438 | 8.54162 | 375 ft | 21 kts | 84° |
| 2026-05-06 18:07 | 50.04454 | 8.54406 | 372 ft | 21 kts | 87° |
| 2026-05-06 18:07 | 50.04415 | 8.54629 | 365 ft | 19 kts | 120° |
| 2026-05-06 18:07 | 50.04337 | 8.54750 | 364 ft | 17 kts | 147° |
| 2026-05-06 18:08 | 50.04249 | 8.54809 | 358 ft | 16 kts | 161° |
| 2026-05-06 18:08 | 50.04198 | 8.54836 | 355 ft | 0 kts | 160° |
| 2026-05-06 18:08 | 50.04167 | 8.54853 | 356 ft | 11 kts | 160° |
| 2026-05-06 18:08 | 50.04062 | 8.54912 | 357 ft | 18 kts | 156° |
| 2026-05-06 18:09 | 50.03996 | 8.54954 | 356 ft | 11 kts | 159° |
| 2026-05-06 18:09 | 50.03918 | 8.55001 | 356 ft | 8 kts | 159° |
| 2026-05-06 18:09 | 50.03872 | 8.55027 | 356 ft | 0 kts | 160° |
| 2026-05-06 18:10 | 50.03848 | 8.55042 | 355 ft | 9 kts | 152° |
| 2026-05-06 18:10 | 50.03859 | 8.55155 | 356 ft | 11 kts | 71° |
| 2026-05-06 18:11 | 50.03875 | 8.55228 | 355 ft | 1 kts | 70° |
| 2026-05-06 18:11 | 50.03890 | 8.55288 | 354 ft | 11 kts | 70° |
| 2026-05-06 18:11 | 50.03927 | 8.55449 | 355 ft | 20 kts | 70° |
| 2026-05-06 18:11 | 50.03950 | 8.55541 | 351 ft | 0 kts | 68° |
| 2026-05-06 18:12 | 50.03960 | 8.55578 | 352 ft | 9 kts | 69° |
| 2026-05-06 18:12 | 50.03994 | 8.55719 | 350 ft | 19 kts | 70° |
| 2026-05-06 18:12 | 50.04049 | 8.55950 | 354 ft | 27 kts | 69° |
| 2026-05-06 18:12 | 50.04113 | 8.56220 | 358 ft | 24 kts | 70° |
| 2026-05-06 18:13 | 50.04173 | 8.56471 | 361 ft | 21 kts | 69° |
| 2026-05-06 18:13 | 50.04222 | 8.56676 | 364 ft | 14 kts | 70° |
| 2026-05-06 18:13 | 50.04264 | 8.56853 | 362 ft | 21 kts | 69° |
| 2026-05-06 18:13 | 50.04327 | 8.57115 | 361 ft | 30 kts | 69° |
| 2026-05-06 18:14 | 50.04367 | 8.57283 | 362 ft | 18 kts | 70° |
| 2026-05-06 18:14 | 50.04417 | 8.57490 | 363 ft | 16 kts | 70° |
| 2026-05-06 18:14 | 50.04447 | 8.57616 | 368 ft | 0 kts | 70° |
| 2026-05-06 18:14 | 50.04449 | 8.57627 | 366 ft | 5 kts | 70° |
| 2026-05-06 18:15 | 50.04472 | 8.57728 | 370 ft | 15 kts | 70° |
| 2026-05-06 18:15 | 50.04519 | 8.57921 | 367 ft | 20 kts | 69° |
| 2026-05-06 18:15 | 50.04555 | 8.58030 | 363 ft | 14 kts | 34° |
| 2026-05-06 18:15 | 50.04642 | 8.57998 | 360 ft | 17 kts | 339° |
| 2026-05-06 18:16 | 50.04745 | 8.57951 | 363 ft | 10 kts | 9° |
| 2026-05-06 18:16 | 50.04802 | 8.58050 | 362 ft | 1 kts | 68° |
| 2026-05-06 18:16 | 50.04816 | 8.58106 | 360 ft | 10 kts | 69° |
| 2026-05-06 18:17 | 50.04841 | 8.58212 | 361 ft | 12 kts | 70° |
| 2026-05-06 18:17 | 50.04880 | 8.58375 | 362 ft | 21 kts | 70° |
| 2026-05-06 18:17 | 50.04931 | 8.58588 | 361 ft | 22 kts | 70° |
| 2026-05-06 18:17 | 50.04973 | 8.58765 | 362 ft | 16 kts | 69° |
| 2026-05-06 18:18 | 50.05016 | 8.58946 | 360 ft | 19 kts | 70° |
| 2026-05-06 18:18 | 50.05045 | 8.59067 | 361 ft | 7 kts | 70° |
| 2026-05-06 18:18 | 50.05056 | 8.59113 | 362 ft | 7 kts | 70° |
| 2026-05-06 18:18 | 50.05065 | 8.59151 | 362 ft | 0 kts | 70° |
| 2026-05-06 18:19 | 50.05065 | 8.59161 | 363 ft | 5 kts | 82° |
| 2026-05-06 18:19 | 50.05031 | 8.59198 | 365 ft | 3 kts | 162° |
| 2026-05-06 18:19 | 50.05014 | 8.59207 | 364 ft | 3 kts | 160° |
| 2026-05-06 18:19 | 50.05003 | 8.59213 | 362 ft | 0 kts | 161° |
| 2026-05-06 18:20 | 50.04999 | 8.59215 | 366 ft | 0 kts | 161° |